Time;durP1;ratioP1;P1;durP2;ratioP2;P2;SDS_P1;SDS_P2;PMS_P1;PMS_P2;Temp;Humidity;BMP_temperature;BMP_pressure;BME280_temperature;BME280_humidity;BME280_pressure;Samples;Min_cycle;Max_cycle;Signal;HPM_P1;HPM_P2
2022/03/30 00:04:42;;;;;;;7.83;4.50;;;;;;;;;;20939858;28;20711;-66
2022/03/30 00:14:44;;;;;;;6.60;3.60;;;;;;;;;;20955603;28;20225;-67
2022/03/30 00:24:46;;;;;;;7.03;3.80;;;;;;;;;;20938178;28;20302;-67
2022/03/30 00:34:47;;;;;;;5.20;2.77;;;;;;;;;;20909327;28;20263;-66
2022/03/30 00:44:50;;;;;;;4.93;2.50;;;;;;;;;;20854439;28;20295;-66
2022/03/30 00:54:52;;;;;;;4.53;2.53;;;14.10;99.90;;;;;;20868176;28;20262;-66
2022/03/30 01:04:54;;;;;;;5.80;2.87;;;;;;;;;;20949944;28;20237;-66
2022/03/30 01:14:56;;;;;;;3.67;2.10;;;;;;;;;;20869938;28;20583;-66
2022/03/30 01:24:58;;;;;;;3.77;2.10;;;;;;;;;;21064478;22;20250;-64
2022/03/30 01:35:02;;;;;;;3.57;2.50;;;14.10;99.90;;;;;;21042250;28;20653;-64
2022/03/30 01:45:04;;;;;;;4.10;2.73;;;;;;;;;;21118035;28;20280;-63
2022/03/30 01:55:06;;;;;;;4.43;2.33;;;13.80;99.90;;;;;;21152083;28;20222;-63
2022/03/30 02:05:09;;;;;;;4.00;2.30;;;13.20;99.90;;;;;;21128450;28;20241;-63
2022/03/30 02:15:11;;;;;;;4.80;2.27;;;13.60;99.90;;;;;;21118581;28;20273;-64
2022/03/30 02:25:13;;;;;;;3.37;2.30;;;;;;;;;;21131546;27;20219;-64
2022/03/30 02:35:15;;;;;;;6.50;2.80;;;;;;;;;;21082637;28;20208;-64
2022/03/30 02:45:16;;;;;;;3.67;2.47;;;;;;;;;;21062393;28;20222;-63
2022/03/30 02:55:18;;;;;;;4.87;2.33;;;;;;;;;;21062395;28;20569;-63
2022/03/30 03:05:20;;;;;;;4.17;2.03;;;;;;;;;;21144946;28;20571;-63
2022/03/30 03:15:22;;;;;;;3.33;2.30;;;13.20;99.90;;;;;;21109895;28;20200;-63
2022/03/30 03:25:27;;;;;;;3.47;2.20;;;;;;;;;;21126897;28;20639;-63
2022/03/30 03:35:30;;;;;;;4.17;2.40;;;;;;;;;;21109092;27;20269;-64
2022/03/30 03:45:32;;;;;;;4.37;2.40;;;13.80;99.90;;;;;;21038488;28;20203;-64
2022/03/30 03:55:34;;;;;;;4.27;2.70;;;;;;;;;;21112204;28;20208;-63
2022/03/30 04:05:36;;;;;;;4.93;3.07;;;;;;;;;;21103590;28;20207;-63
2022/03/30 04:15:38;;;;;;;6.60;3.37;;;;;;;;;;21096321;28;20246;-64
2022/03/30 04:25:40;;;;;;;4.27;2.70;;;;;;;;;;21109369;28;20220;-63
2022/03/30 04:35:41;;;;;;;5.67;3.00;;;;;;;;;;21056499;28;20242;-64
2022/03/30 04:45:43;;;;;;;5.50;2.80;;;;;;;;;;21068638;28;20296;-63
2022/03/30 04:55:45;;;;;;;4.70;3.27;;;;;;;;;;21109631;28;20276;-63
2022/03/30 05:05:47;;;;;;;8.20;4.13;;;;;;;;;;21089869;28;20276;-63
2022/03/30 05:15:49;;;;;;;5.57;3.63;;;;;;;;;;21096301;28;20618;-63
2022/03/30 05:25:52;;;;;;;6.00;3.90;;;;;;;;;;21122973;28;20215;-63
2022/03/30 05:35:53;;;;;;;7.77;3.93;;;;;;;;;;21053725;28;20883;-63
2022/03/30 05:45:55;;;;;;;7.17;3.73;;;;;;;;;;21051338;28;20212;-63
2022/03/30 05:55:57;;;;;;;7.13;3.77;;;;;;;;;;21011771;28;20221;-63
2022/03/30 06:06:01;;;;;;;7.17;4.23;;;;;;;;;;21083624;28;20223;-63
2022/03/30 06:16:02;;;;;;;11.03;4.37;;;;;;;;;;21125956;28;20312;-64
2022/03/30 06:26:05;;;;;;;7.63;4.40;;;;;;;;;;21123684;27;20227;-63
2022/03/30 06:36:07;;;;;;;7.53;4.77;;;;;;;;;;21195280;27;20697;-64
2022/03/30 06:46:09;;;;;;;7.93;4.53;;;;;;;;;;21191536;27;20652;-64
2022/03/30 06:56:11;;;;;;;8.47;5.07;;;;;;;;;;21191517;27;20215;-64
2022/03/30 07:06:13;;;;;;;7.30;4.53;;;;;;;;;;21131216;27;20204;-64
2022/03/30 07:16:15;;;;;;;9.73;5.03;;;;;;;;;;21123073;27;20765;-64
2022/03/30 07:26:17;;;;;;;8.43;4.67;;;;;;;;;;21056528;28;20212;-64
2022/03/30 07:36:18;;;;;;;15.00;5.20;;;;;;;;;;21096093;28;20242;-64
2022/03/30 07:46:20;;;;;;;8.33;5.30;;;;;;;;;;21089130;28;20690;-63
2022/03/30 07:56:22;;;;;;;9.10;5.27;;;;;;;;;;21109929;27;20216;-62
2022/03/30 08:06:24;;;;;;;8.20;5.40;;;;;;;;;;21198562;27;20213;-62
2022/03/30 08:16:26;;;;;;;9.27;5.23;;;;;;;;;;21055927;28;20216;-62
2022/03/30 08:26:28;;;;;;;7.63;4.50;;;;;;;;;;21082310;28;20215;-61
2022/03/30 08:36:30;;;;;;;8.63;5.30;;;;;;;;;;21109634;28;20228;-62
2022/03/30 08:46:32;;;;;;;8.80;5.30;;;;;;;;;;21036917;28;20216;-62
2022/03/30 08:56:36;;;;;;;7.33;5.07;;;;;;;;;;21052761;28;20212;-62
2022/03/30 09:06:42;;;;;;;10.47;5.57;;;11.40;99.90;;;;;;21053423;28;20671;-62
2022/03/30 09:16:45;;;;;;;8.20;5.27;;;;;;;;;;21055104;28;20560;-63
2022/03/30 09:26:47;;;;;;;9.63;5.67;;;11.80;99.90;;;;;;21118798;28;20679;-63
2022/03/30 09:36:52;;;;;;;8.90;5.30;;;11.20;99.90;;;;;;21119505;28;20560;-63
2022/03/30 09:46:58;;;;;;;10.50;5.60;;;6.20;99.90;;;;;;21117091;28;20212;-63
2022/03/30 09:57:00;;;;;;;9.67;5.40;;;;;;;;;;21125390;28;20220;-63
2022/03/30 10:07:03;;;;;;;7.97;5.27;;;11.30;99.90;;;;;;21115467;28;20268;-63
2022/03/30 10:17:05;;;;;;;9.33;5.30;;;;;;;;;;21088941;27;20223;-63
2022/03/30 10:27:22;;;;;;;7.83;5.23;;;;;;;;;;21143838;27;20236;-63
2022/03/30 10:37:25;;;;;;;10.50;5.63;;;;;;;;;;21210601;27;20626;-63
2022/03/30 10:47:29;;;;;;;8.43;5.40;;;;;;;;;;21098223;28;20558;-63
2022/03/30 10:57:50;;;;;;;10.83;6.10;;;11.80;99.90;;;;;;21113062;28;20215;-63
2022/03/30 11:07:52;;;;;;;8.33;5.43;;;;;;;;;;21095722;28;20590;-63
2022/03/30 11:17:56;;;;;;;10.13;5.83;;;11.90;99.90;;;;;;21127984;28;20697;-63
2022/03/30 11:27:58;;;;;;;9.23;6.07;;;;;;;;;;21124208;28;20730;-63
2022/03/30 11:38:02;;;;;;;9.37;5.97;;;12.10;99.90;;;;;;21120545;28;20690;-63
2022/03/30 11:48:07;;;;;;;9.67;5.80;;;13.00;99.90;;;;;;21127305;28;20207;-63
2022/03/30 11:58:09;;;;;;;8.57;5.43;;;;;;;;;;21098999;27;20219;-63
2022/03/30 12:08:11;;;;;;;8.70;5.73;;;;;;;;;;21144073;27;20242;-64
2022/03/30 12:18:13;;;;;;;7.93;4.90;;;;;;;;;;21175052;27;20223;-64
2022/03/30 12:28:27;;;;;;;10.67;5.53;;;;;;;;;;21138924;27;20263;-64
2022/03/30 12:38:34;;;;;;;8.87;5.57;;;;;;;;;;21112264;27;20206;-64
2022/03/30 12:48:38;;;;;;;7.63;5.03;;;;;;;;;;21207076;27;20219;-65
2022/03/30 12:58:56;;;;;;;9.37;5.10;;;;;;;;;;21161389;27;20223;-64
2022/03/30 13:09:03;;;;;;;7.23;4.27;;;;;;;;;;21204892;27;20198;-64
2022/03/30 13:19:11;;;;;;;7.77;4.30;;;13.20;99.90;;;;;;21139462;27;20698;-65
2022/03/30 13:29:14;;;;;;;7.60;4.27;;;;;;;;;;21121870;28;20346;-63
2022/03/30 13:39:16;;;;;;;5.73;3.80;;;13.10;99.90;;;;;;21161029;22;20292;-79
2022/03/30 13:49:40;;;;;;;6.13;4.17;;;13.00;99.90;;;;;;21139941;28;20238;-79
2022/03/30 13:59:41;;;;;;;7.20;4.53;;;;;;;;;;21155765;28;20284;-78
2022/03/30 14:09:43;;;;;;;6.47;4.13;;;;;;;;;;21172736;27;20261;-80
2022/03/30 14:19:45;;;;;;;8.83;4.33;;;;;;;;;;21137658;28;20762;-80
2022/03/30 14:29:47;;;;;;;8.83;4.00;;;;;;;;;;21155727;28;20219;-80
2022/03/30 14:39:48;;;;;;;5.53;3.87;;;;;;;;;;21173307;27;20227;-79
2022/03/30 14:49:50;;;;;;;5.00;3.47;;;;;;;;;;21169762;27;20216;-80
2022/03/30 14:59:52;;;;;;;5.50;3.20;;;;;;;;;;21127153;27;20594;-81
2022/03/30 15:09:54;;;;;;;4.93;3.10;;;;;;;;;;21168379;28;20561;-80
2022/03/30 15:19:56;;;;;;;5.07;3.43;;;;;;;;;;21140469;28;20246;-80
2022/03/30 15:29:59;;;;;;;4.27;2.80;;;;;;;;;;21100205;27;20212;-80
2022/03/30 15:40:00;;;;;;;4.80;3.33;;;;;;;;;;21123708;27;20254;-81
2022/03/30 15:50:02;;;;;;;4.47;2.90;;;;;;;;;;21104819;27;20276;-78
2022/03/30 16:00:07;;;;;;;4.50;3.23;;;;;;;;;;21115583;28;20232;-79
2022/03/30 16:10:09;;;;;;;5.40;3.23;;;;;;;;;;21057946;28;20341;-78
2022/03/30 16:20:29;;;;;;;5.07;2.80;;;12.70;99.90;;;;;;21038383;28;20274;-79
2022/03/30 16:30:31;;;;;;;4.77;2.93;;;;;;;;;;21130349;28;20245;-78
2022/03/30 16:40:34;;;;;;;4.00;2.90;;;;;;;;;;21106716;28;20227;-79
2022/03/30 16:50:37;;;;;;;6.07;4.70;;;;;;;;;;21139211;27;20590;-79
2022/03/30 17:00:39;;;;;;;4.83;2.97;;;;;;;;;;21137338;28;20681;-80
2022/03/30 17:10:42;;;;;;;10.53;7.43;;;;;;;;;;21120718;28;20570;-79
2022/03/30 17:20:44;;;;;;;6.10;3.60;;;;;;;;;;21153240;28;20250;-80
2022/03/30 17:30:46;;;;;;;6.43;3.57;;;;;;;;;;21121195;28;20226;-78
2022/03/30 17:40:50;;;;;;;5.17;3.20;;;;;;;;;;21170538;27;20223;-79
2022/03/30 18:01:29;;;;;;;5.03;3.13;;;;;;;;;;21039449;28;20299;-80
2022/03/30 18:11:32;;;;;;;4.63;3.00;;;;;;;;;;21126890;28;20208;-80
2022/03/30 18:21:34;;;;;;;7.00;4.10;;;;;;;;;;21145021;28;20211;-79
2022/03/30 18:31:36;;;;;;;7.13;3.40;;;;;;;;;;21167087;28;20276;-80
2022/03/30 18:41:37;;;;;;;5.03;3.37;;;;;;;;;;21167288;27;20289;-80
2022/03/30 18:51:39;;;;;;;4.43;3.17;;;;;;;;;;21141133;28;20220;-81
2022/03/30 19:01:41;;;;;;;6.03;3.30;;;;;;;;;;21165737;27;20284;-80
2022/03/30 19:11:43;;;;;;;5.53;3.33;;;12.00;99.90;;;;;;21129896;27;20276;-80
2022/03/30 19:21:45;;;;;;;7.33;3.97;;;;;;;;;;21124972;27;20223;-78
2022/03/30 19:31:47;;;;;;;5.20;3.20;;;;;;;;;;21117853;28;20402;-81
2022/03/30 19:41:50;;;;;;;5.77;3.73;;;11.60;99.90;;;;;;21034484;27;20236;-82
2022/03/30 19:51:53;;;;;;;6.77;3.93;;;;;;;;;;21139317;27;20764;-82
2022/03/30 20:01:55;;;;;;;5.23;3.43;;;;;;;;;;21095500;27;20232;-83
2022/03/30 20:11:57;;;;;;;4.97;3.27;;;;;;;;;;21146635;28;20203;-80
2022/03/30 20:21:59;;;;;;;5.63;3.77;;;;;;;;;;21143042;28;20223;-80
2022/03/30 20:32:00;;;;;;;8.60;5.50;;;11.10;99.90;;;;;;21188002;28;20559;-82
2022/03/30 20:42:02;;;;;;;7.43;4.23;;;;;;;;;;21086351;28;20231;-81
2022/03/30 20:52:11;;;;;;;6.23;4.07;;;;;;;;;;21132080;27;20216;-80
2022/03/30 21:02:14;;;;;;;5.33;3.60;;;;;;;;;;21135745;28;20236;-81
2022/03/30 21:12:16;;;;;;;5.50;3.40;;;;;;;;;;21190721;28;20219;-80
2022/03/30 21:22:17;;;;;;;4.63;3.43;;;;;;;;;;21133918;28;20243;-80
2022/03/30 21:32:19;;;;;;;5.50;3.70;;;;;;;;;;21158515;28;20270;-81
2022/03/30 21:42:21;;;;;;;7.67;3.60;;;;;;;;;;21128776;28;20227;-81
2022/03/30 21:52:22;;;;;;;6.23;3.63;;;;;;;;;;21142053;28;20280;-82
2022/03/30 22:02:24;;;;;;;5.80;4.10;;;;;;;;;;21148890;28;20269;-81
2022/03/30 22:12:26;;;;;;;6.23;3.87;;;;;;;;;;21168734;28;20215;-81
2022/03/30 22:22:29;;;;;;;5.00;2.90;;;;;;;;;;21172603;28;20228;-81
2022/03/30 22:42:52;;;;;;;4.97;3.00;;;;;;;;;;21151604;28;20643;-79
2022/03/30 22:52:53;;;;;;;6.30;3.93;;;;;;;;;;21151501;28;20220;-80
2022/03/30 23:02:55;;;;;;;7.37;3.87;;;;;;;;;;21167922;28;20288;-79
2022/03/30 23:12:59;;;;;;;5.53;3.57;;;;;;;;;;21103524;27;20246;-80
2022/03/30 23:23:01;;;;;;;5.30;3.20;;;;;;;;;;21154085;27;20367;-81
2022/03/30 23:33:03;;;;;;;4.83;3.07;;;;;;;;;;21131617;28;20199;-82
2022/03/30 23:43:05;;;;;;;5.67;3.27;;;;;;;;;;21098432;28;20756;-82
2022/03/30 23:53:07;;;;;;;6.27;3.50;;;;;;;;;;21141332;28;20555;-81
